sensor_id;sensor_type;location;lat;lon;timestamp;P1;durP1;ratioP1;P2;durP2;ratioP2
28934;SDS011;16044;52.726;-2.108;2022-09-09T00:04:55;13.10;;;7.22;;
28934;SDS011;16044;52.726;-2.108;2022-09-09T00:10:31;9.68;;;6.03;;
28934;SDS011;16044;52.726;-2.108;2022-09-09T00:19:15;11.45;;;6.25;;
28934;SDS011;16044;52.726;-2.108;2022-09-09T00:24:48;11.30;;;6.15;;
28934;SDS011;16044;52.726;-2.108;2022-09-09T00:32:47;13.60;;;6.97;;
28934;SDS011;16044;52.726;-2.108;2022-09-09T00:35:30;9.73;;;6.15;;
28934;SDS011;16044;52.726;-2.108;2022-09-09T00:38:09;11.88;;;7.32;;
28934;SDS011;16044;52.726;-2.108;2022-09-09T00:40:45;15.10;;;7.72;;
28934;SDS011;16044;52.726;-2.108;2022-09-09T00:43:38;12.20;;;6.65;;
28934;SDS011;16044;52.726;-2.108;2022-09-09T00:46:26;14.18;;;6.75;;
28934;SDS011;16044;52.726;-2.108;2022-09-09T00:49:30;12.25;;;7.32;;
28934;SDS011;16044;52.726;-2.108;2022-09-09T00:58:06;11.90;;;6.82;;
28934;SDS011;16044;52.726;-2.108;2022-09-09T01:00:40;13.10;;;7.63;;
28934;SDS011;16044;52.726;-2.108;2022-09-09T01:12:01;13.88;;;7.60;;
28934;SDS011;16044;52.726;-2.108;2022-09-09T01:20:04;8.90;;;5.70;;
28934;SDS011;16044;52.726;-2.108;2022-09-09T01:28:11;12.57;;;6.93;;
28934;SDS011;16044;52.726;-2.108;2022-09-09T01:30:45;14.98;;;8.98;;
28934;SDS011;16044;52.726;-2.108;2022-09-09T01:33:16;18.23;;;8.50;;
28934;SDS011;16044;52.726;-2.108;2022-09-09T01:35:51;14.63;;;8.70;;
28934;SDS011;16044;52.726;-2.108;2022-09-09T01:38:33;14.57;;;9.18;;
28934;SDS011;16044;52.726;-2.108;2022-09-09T01:41:01;13.75;;;7.95;;
28934;SDS011;16044;52.726;-2.108;2022-09-09T01:43:29;12.90;;;7.55;;
28934;SDS011;16044;52.726;-2.108;2022-09-09T01:45:59;15.43;;;8.93;;
28934;SDS011;16044;52.726;-2.108;2022-09-09T01:48:28;13.30;;;7.45;;
28934;SDS011;16044;52.726;-2.108;2022-09-09T01:50:56;14.27;;;8.93;;
28934;SDS011;16044;52.726;-2.108;2022-09-09T01:53:23;14.43;;;8.73;;
28934;SDS011;16044;52.726;-2.108;2022-09-09T02:01:07;18.75;;;12.48;;
28934;SDS011;16044;52.726;-2.108;2022-09-09T02:03:56;22.10;;;12.63;;
28934;SDS011;16044;52.726;-2.108;2022-09-09T02:08:57;18.73;;;9.82;;
28934;SDS011;16044;52.726;-2.108;2022-09-09T02:11:29;17.42;;;11.10;;
28934;SDS011;16044;52.726;-2.108;2022-09-09T02:14:00;12.48;;;8.75;;
28934;SDS011;16044;52.726;-2.108;2022-09-09T02:17:13;18.85;;;12.50;;
28934;SDS011;16044;52.726;-2.108;2022-09-09T02:19:49;15.38;;;10.40;;
28934;SDS011;16044;52.726;-2.108;2022-09-09T02:22:26;18.88;;;12.68;;
28934;SDS011;16044;52.726;-2.108;2022-09-09T02:24:57;22.85;;;14.23;;
28934;SDS011;16044;52.726;-2.108;2022-09-09T02:27:26;20.80;;;12.93;;
28934;SDS011;16044;52.726;-2.108;2022-09-09T02:29:54;21.35;;;13.77;;
28934;SDS011;16044;52.726;-2.108;2022-09-09T02:32:23;20.50;;;13.15;;
28934;SDS011;16044;52.726;-2.108;2022-09-09T02:34:53;21.60;;;13.43;;
28934;SDS011;16044;52.726;-2.108;2022-09-09T02:37:37;19.50;;;12.82;;
28934;SDS011;16044;52.726;-2.108;2022-09-09T02:40:06;23.10;;;15.20;;
28934;SDS011;16044;52.726;-2.108;2022-09-09T02:42:43;20.80;;;14.77;;
28934;SDS011;16044;52.726;-2.108;2022-09-09T02:45:16;24.52;;;15.35;;
28934;SDS011;16044;52.726;-2.108;2022-09-09T02:48:30;23.35;;;14.75;;
28934;SDS011;16044;52.726;-2.108;2022-09-09T02:54:01;22.75;;;13.95;;
28934;SDS011;16044;52.726;-2.108;2022-09-09T02:56:53;19.48;;;13.27;;
28934;SDS011;16044;52.726;-2.108;2022-09-09T02:59:22;19.17;;;13.50;;
28934;SDS011;16044;52.726;-2.108;2022-09-09T03:01:51;21.95;;;14.82;;
28934;SDS011;16044;52.726;-2.108;2022-09-09T03:04:19;22.63;;;15.48;;
28934;SDS011;16044;52.726;-2.108;2022-09-09T03:06:46;21.08;;;14.20;;
28934;SDS011;16044;52.726;-2.108;2022-09-09T03:09:13;21.20;;;14.57;;
28934;SDS011;16044;52.726;-2.108;2022-09-09T03:11:40;27.80;;;15.23;;
28934;SDS011;16044;52.726;-2.108;2022-09-09T03:14:07;20.60;;;15.40;;
28934;SDS011;16044;52.726;-2.108;2022-09-09T03:16:34;26.02;;;16.60;;
28934;SDS011;16044;52.726;-2.108;2022-09-09T03:19:01;26.20;;;17.67;;
28934;SDS011;16044;52.726;-2.108;2022-09-09T03:21:28;29.55;;;18.05;;
28934;SDS011;16044;52.726;-2.108;2022-09-09T03:23:55;30.67;;;20.10;;
28934;SDS011;16044;52.726;-2.108;2022-09-09T03:26:23;25.25;;;15.77;;
28934;SDS011;16044;52.726;-2.108;2022-09-09T03:28:50;29.40;;;18.48;;
28934;SDS011;16044;52.726;-2.108;2022-09-09T03:31:18;30.70;;;19.45;;
28934;SDS011;16044;52.726;-2.108;2022-09-09T03:33:45;28.10;;;17.63;;
28934;SDS011;16044;52.726;-2.108;2022-09-09T03:36:12;25.17;;;18.17;;
28934;SDS011;16044;52.726;-2.108;2022-09-09T03:38:41;26.63;;;19.42;;
28934;SDS011;16044;52.726;-2.108;2022-09-09T03:41:08;35.10;;;20.67;;
28934;SDS011;16044;52.726;-2.108;2022-09-09T03:43:35;29.10;;;17.85;;
28934;SDS011;16044;52.726;-2.108;2022-09-09T03:46:02;27.95;;;19.40;;
28934;SDS011;16044;52.726;-2.108;2022-09-09T03:48:29;28.58;;;19.23;;
28934;SDS011;16044;52.726;-2.108;2022-09-09T03:50:56;33.97;;;20.30;;
28934;SDS011;16044;52.726;-2.108;2022-09-09T03:53:27;25.70;;;17.30;;
28934;SDS011;16044;52.726;-2.108;2022-09-09T03:55:56;32.65;;;21.92;;
28934;SDS011;16044;52.726;-2.108;2022-09-09T03:58:26;29.52;;;18.63;;
28934;SDS011;16044;52.726;-2.108;2022-09-09T04:00:55;27.10;;;17.58;;
28934;SDS011;16044;52.726;-2.108;2022-09-09T04:03:24;28.80;;;19.83;;
28934;SDS011;16044;52.726;-2.108;2022-09-09T04:05:54;24.25;;;17.05;;
28934;SDS011;16044;52.726;-2.108;2022-09-09T04:08:23;31.33;;;20.42;;
28934;SDS011;16044;52.726;-2.108;2022-09-09T04:10:53;26.77;;;18.42;;
28934;SDS011;16044;52.726;-2.108;2022-09-09T04:13:25;29.58;;;19.08;;
28934;SDS011;16044;52.726;-2.108;2022-09-09T04:15:57;23.75;;;16.75;;
28934;SDS011;16044;52.726;-2.108;2022-09-09T04:18:25;28.73;;;20.15;;
28934;SDS011;16044;52.726;-2.108;2022-09-09T04:20:54;28.63;;;20.00;;
28934;SDS011;16044;52.726;-2.108;2022-09-09T04:23:24;29.23;;;19.65;;
28934;SDS011;16044;52.726;-2.108;2022-09-09T04:25:55;30.05;;;21.13;;
28934;SDS011;16044;52.726;-2.108;2022-09-09T04:28:24;23.75;;;16.75;;
28934;SDS011;16044;52.726;-2.108;2022-09-09T04:30:56;25.85;;;18.80;;
28934;SDS011;16044;52.726;-2.108;2022-09-09T04:33:23;31.50;;;22.48;;
28934;SDS011;16044;52.726;-2.108;2022-09-09T04:35:53;32.90;;;21.10;;
28934;SDS011;16044;52.726;-2.108;2022-09-09T04:38:21;26.75;;;19.75;;
28934;SDS011;16044;52.726;-2.108;2022-09-09T04:40:50;27.65;;;18.42;;
28934;SDS011;16044;52.726;-2.108;2022-09-09T04:43:18;28.83;;;19.27;;
28934;SDS011;16044;52.726;-2.108;2022-09-09T04:45:46;30.15;;;18.95;;
28934;SDS011;16044;52.726;-2.108;2022-09-09T04:48:14;26.98;;;19.83;;
28934;SDS011;16044;52.726;-2.108;2022-09-09T04:50:42;32.55;;;21.05;;
28934;SDS011;16044;52.726;-2.108;2022-09-09T04:53:08;30.52;;;20.60;;
28934;SDS011;16044;52.726;-2.108;2022-09-09T04:55:36;35.05;;;23.38;;
28934;SDS011;16044;52.726;-2.108;2022-09-09T04:58:07;34.33;;;23.13;;
28934;SDS011;16044;52.726;-2.108;2022-09-09T05:00:35;34.45;;;21.55;;
28934;SDS011;16044;52.726;-2.108;2022-09-09T05:03:03;29.73;;;21.02;;
28934;SDS011;16044;52.726;-2.108;2022-09-09T05:05:35;29.73;;;19.45;;
28934;SDS011;16044;52.726;-2.108;2022-09-09T05:08:03;37.28;;;23.08;;
28934;SDS011;16044;52.726;-2.108;2022-09-09T05:10:32;31.55;;;23.60;;
28934;SDS011;16044;52.726;-2.108;2022-09-09T05:12:59;37.53;;;24.23;;
28934;SDS011;16044;52.726;-2.108;2022-09-09T05:15:26;36.00;;;24.75;;
28934;SDS011;16044;52.726;-2.108;2022-09-09T05:17:56;39.72;;;25.05;;
28934;SDS011;16044;52.726;-2.108;2022-09-09T05:20:27;39.25;;;26.75;;
28934;SDS011;16044;52.726;-2.108;2022-09-09T05:22:55;45.70;;;29.05;;
28934;SDS011;16044;52.726;-2.108;2022-09-09T05:25:23;42.83;;;28.05;;
28934;SDS011;16044;52.726;-2.108;2022-09-09T05:27:52;37.00;;;25.08;;
28934;SDS011;16044;52.726;-2.108;2022-09-09T05:30:20;38.05;;;25.60;;
28934;SDS011;16044;52.726;-2.108;2022-09-09T05:32:51;36.85;;;23.10;;
28934;SDS011;16044;52.726;-2.108;2022-09-09T05:35:17;37.47;;;26.60;;
28934;SDS011;16044;52.726;-2.108;2022-09-09T05:37:45;41.53;;;26.08;;
28934;SDS011;16044;52.726;-2.108;2022-09-09T05:40:12;33.40;;;26.17;;
28934;SDS011;16044;52.726;-2.108;2022-09-09T05:42:39;31.58;;;21.92;;
28934;SDS011;16044;52.726;-2.108;2022-09-09T05:45:07;41.20;;;26.98;;
28934;SDS011;16044;52.726;-2.108;2022-09-09T05:47:35;36.90;;;24.25;;
28934;SDS011;16044;52.726;-2.108;2022-09-09T05:50:03;36.80;;;22.85;;
28934;SDS011;16044;52.726;-2.108;2022-09-09T05:52:31;40.67;;;26.67;;
28934;SDS011;16044;52.726;-2.108;2022-09-09T05:54:58;41.50;;;27.15;;
28934;SDS011;16044;52.726;-2.108;2022-09-09T05:57:26;34.92;;;23.98;;
28934;SDS011;16044;52.726;-2.108;2022-09-09T05:59:53;31.98;;;22.10;;
28934;SDS011;16044;52.726;-2.108;2022-09-09T06:02:20;37.47;;;23.33;;
28934;SDS011;16044;52.726;-2.108;2022-09-09T06:04:47;35.72;;;24.05;;
28934;SDS011;16044;52.726;-2.108;2022-09-09T06:07:14;34.50;;;23.90;;
28934;SDS011;16044;52.726;-2.108;2022-09-09T06:09:41;38.70;;;25.65;;
28934;SDS011;16044;52.726;-2.108;2022-09-09T06:12:08;35.85;;;24.08;;
28934;SDS011;16044;52.726;-2.108;2022-09-09T06:14:35;33.83;;;23.80;;
28934;SDS011;16044;52.726;-2.108;2022-09-09T06:17:03;29.13;;;22.00;;
28934;SDS011;16044;52.726;-2.108;2022-09-09T06:19:30;32.58;;;24.45;;
28934;SDS011;16044;52.726;-2.108;2022-09-09T06:21:57;36.92;;;24.60;;
28934;SDS011;16044;52.726;-2.108;2022-09-09T06:24:25;36.70;;;24.27;;
28934;SDS011;16044;52.726;-2.108;2022-09-09T06:26:52;35.65;;;25.33;;
28934;SDS011;16044;52.726;-2.108;2022-09-09T06:29:20;39.08;;;27.13;;
28934;SDS011;16044;52.726;-2.108;2022-09-09T06:31:47;42.58;;;27.77;;
28934;SDS011;16044;52.726;-2.108;2022-09-09T06:34:14;37.95;;;25.38;;
28934;SDS011;16044;52.726;-2.108;2022-09-09T06:36:41;34.92;;;23.45;;
28934;SDS011;16044;52.726;-2.108;2022-09-09T06:39:08;41.80;;;26.95;;
28934;SDS011;16044;52.726;-2.108;2022-09-09T06:41:40;35.15;;;24.23;;
28934;SDS011;16044;52.726;-2.108;2022-09-09T06:44:09;43.78;;;27.67;;
28934;SDS011;16044;52.726;-2.108;2022-09-09T06:46:38;39.92;;;27.63;;
28934;SDS011;16044;52.726;-2.108;2022-09-09T06:49:07;35.30;;;24.83;;
28934;SDS011;16044;52.726;-2.108;2022-09-09T06:51:36;41.92;;;28.10;;
28934;SDS011;16044;52.726;-2.108;2022-09-09T06:54:10;39.63;;;26.42;;
28934;SDS011;16044;52.726;-2.108;2022-09-09T06:56:38;39.17;;;26.80;;
28934;SDS011;16044;52.726;-2.108;2022-09-09T06:59:08;35.88;;;25.42;;
28934;SDS011;16044;52.726;-2.108;2022-09-09T07:01:37;44.08;;;29.75;;
28934;SDS011;16044;52.726;-2.108;2022-09-09T07:04:17;38.17;;;26.48;;
28934;SDS011;16044;52.726;-2.108;2022-09-09T07:06:45;44.58;;;29.35;;
28934;SDS011;16044;52.726;-2.108;2022-09-09T07:09:13;43.92;;;29.40;;
28934;SDS011;16044;52.726;-2.108;2022-09-09T07:11:43;41.83;;;30.05;;
28934;SDS011;16044;52.726;-2.108;2022-09-09T07:14:13;40.03;;;26.75;;
28934;SDS011;16044;52.726;-2.108;2022-09-09T07:16:41;43.38;;;30.10;;
28934;SDS011;16044;52.726;-2.108;2022-09-09T07:19:10;45.70;;;31.65;;
28934;SDS011;16044;52.726;-2.108;2022-09-09T07:21:38;45.15;;;29.73;;
28934;SDS011;16044;52.726;-2.108;2022-09-09T07:24:09;40.97;;;27.42;;
28934;SDS011;16044;52.726;-2.108;2022-09-09T07:26:37;42.53;;;30.88;;
28934;SDS011;16044;52.726;-2.108;2022-09-09T07:29:05;40.55;;;26.75;;
28934;SDS011;16044;52.726;-2.108;2022-09-09T07:31:35;41.75;;;27.80;;
28934;SDS011;16044;52.726;-2.108;2022-09-09T07:34:05;47.22;;;29.83;;
28934;SDS011;16044;52.726;-2.108;2022-09-09T07:36:33;47.08;;;29.50;;
28934;SDS011;16044;52.726;-2.108;2022-09-09T07:39:08;41.47;;;27.35;;
28934;SDS011;16044;52.726;-2.108;2022-09-09T07:41:38;41.83;;;25.88;;
28934;SDS011;16044;52.726;-2.108;2022-09-09T07:44:07;36.70;;;26.10;;
28934;SDS011;16044;52.726;-2.108;2022-09-09T07:46:37;34.78;;;23.98;;
28934;SDS011;16044;52.726;-2.108;2022-09-09T07:49:08;38.70;;;25.23;;
28934;SDS011;16044;52.726;-2.108;2022-09-09T07:51:41;42.50;;;25.77;;
28934;SDS011;16044;52.726;-2.108;2022-09-09T07:54:11;38.13;;;25.40;;
28934;SDS011;16044;52.726;-2.108;2022-09-09T07:56:41;34.08;;;23.88;;
28934;SDS011;16044;52.726;-2.108;2022-09-09T07:59:09;38.28;;;25.83;;
28934;SDS011;16044;52.726;-2.108;2022-09-09T08:01:37;36.28;;;26.95;;
28934;SDS011;16044;52.726;-2.108;2022-09-09T08:04:10;36.53;;;25.42;;
28934;SDS011;16044;52.726;-2.108;2022-09-09T08:06:45;34.55;;;23.38;;
28934;SDS011;16044;52.726;-2.108;2022-09-09T08:09:19;34.83;;;23.30;;
28934;SDS011;16044;52.726;-2.108;2022-09-09T08:11:47;35.78;;;24.40;;
28934;SDS011;16044;52.726;-2.108;2022-09-09T08:14:14;36.03;;;24.60;;
28934;SDS011;16044;52.726;-2.108;2022-09-09T08:16:43;41.88;;;27.00;;
28934;SDS011;16044;52.726;-2.108;2022-09-09T08:19:12;34.85;;;24.75;;
28934;SDS011;16044;52.726;-2.108;2022-09-09T08:21:41;35.53;;;24.92;;
28934;SDS011;16044;52.726;-2.108;2022-09-09T08:24:10;37.10;;;24.80;;
28934;SDS011;16044;52.726;-2.108;2022-09-09T08:26:39;36.40;;;25.55;;
28934;SDS011;16044;52.726;-2.108;2022-09-09T08:29:09;30.33;;;20.85;;
28934;SDS011;16044;52.726;-2.108;2022-09-09T08:31:39;32.20;;;23.23;;
28934;SDS011;16044;52.726;-2.108;2022-09-09T08:34:14;36.78;;;24.20;;
28934;SDS011;16044;52.726;-2.108;2022-09-09T08:36:42;33.75;;;22.73;;
28934;SDS011;16044;52.726;-2.108;2022-09-09T08:39:12;34.70;;;23.48;;
28934;SDS011;16044;52.726;-2.108;2022-09-09T08:44:37;33.95;;;23.13;;
28934;SDS011;16044;52.726;-2.108;2022-09-09T08:50:37;40.95;;;26.38;;
28934;SDS011;16044;52.726;-2.108;2022-09-09T08:53:17;36.67;;;25.08;;
28934;SDS011;16044;52.726;-2.108;2022-09-09T08:55:54;29.98;;;20.35;;
28934;SDS011;16044;52.726;-2.108;2022-09-09T08:58:28;29.42;;;20.52;;
28934;SDS011;16044;52.726;-2.108;2022-09-09T09:06:35;31.33;;;21.38;;
28934;SDS011;16044;52.726;-2.108;2022-09-09T09:12:17;30.95;;;22.38;;
28934;SDS011;16044;52.726;-2.108;2022-09-09T09:14:50;30.33;;;20.17;;
28934;SDS011;16044;52.726;-2.108;2022-09-09T09:17:18;33.75;;;22.95;;
28934;SDS011;16044;52.726;-2.108;2022-09-09T09:19:47;28.17;;;19.38;;
28934;SDS011;16044;52.726;-2.108;2022-09-09T09:22:20;31.67;;;21.00;;
28934;SDS011;16044;52.726;-2.108;2022-09-09T09:30:20;30.67;;;18.77;;
28934;SDS011;16044;52.726;-2.108;2022-09-09T09:33:02;27.02;;;18.67;;
28934;SDS011;16044;52.726;-2.108;2022-09-09T09:35:41;27.00;;;17.15;;
28934;SDS011;16044;52.726;-2.108;2022-09-09T09:38:19;21.63;;;14.85;;
28934;SDS011;16044;52.726;-2.108;2022-09-09T09:41:09;26.10;;;17.55;;
28934;SDS011;16044;52.726;-2.108;2022-09-09T09:43:37;27.75;;;18.42;;
28934;SDS011;16044;52.726;-2.108;2022-09-09T09:46:22;28.50;;;18.67;;
28934;SDS011;16044;52.726;-2.108;2022-09-09T09:49:02;26.10;;;17.05;;
28934;SDS011;16044;52.726;-2.108;2022-09-09T09:51:32;25.85;;;17.02;;
28934;SDS011;16044;52.726;-2.108;2022-09-09T09:54:06;25.23;;;16.55;;
28934;SDS011;16044;52.726;-2.108;2022-09-09T09:56:39;24.95;;;16.50;;
28934;SDS011;16044;52.726;-2.108;2022-09-09T09:59:19;25.02;;;15.60;;
28934;SDS011;16044;52.726;-2.108;2022-09-09T10:05:02;30.08;;;17.40;;
28934;SDS011;16044;52.726;-2.108;2022-09-09T10:07:44;22.85;;;15.32;;
28934;SDS011;16044;52.726;-2.108;2022-09-09T10:10:21;25.33;;;16.42;;
28934;SDS011;16044;52.726;-2.108;2022-09-09T10:19:34;28.73;;;16.70;;
28934;SDS011;16044;52.726;-2.108;2022-09-09T10:33:51;29.42;;;18.08;;
28934;SDS011;16044;52.726;-2.108;2022-09-09T10:36:46;27.50;;;17.73;;
28934;SDS011;16044;52.726;-2.108;2022-09-09T10:42:14;24.25;;;18.42;;
28934;SDS011;16044;52.726;-2.108;2022-09-09T10:50:35;28.48;;;19.13;;
28934;SDS011;16044;52.726;-2.108;2022-09-09T10:53:37;24.67;;;19.17;;
28934;SDS011;16044;52.726;-2.108;2022-09-09T10:56:32;26.23;;;18.20;;
28934;SDS011;16044;52.726;-2.108;2022-09-09T10:59:02;25.70;;;17.95;;
28934;SDS011;16044;52.726;-2.108;2022-09-09T11:01:43;27.95;;;18.10;;
28934;SDS011;16044;52.726;-2.108;2022-09-09T11:08:06;27.23;;;16.92;;
28934;SDS011;16044;52.726;-2.108;2022-09-09T11:13:46;25.27;;;18.63;;
28934;SDS011;16044;52.726;-2.108;2022-09-09T11:16:29;23.83;;;17.67;;
28934;SDS011;16044;52.726;-2.108;2022-09-09T11:19:27;26.73;;;18.83;;
28934;SDS011;16044;52.726;-2.108;2022-09-09T11:21:58;22.63;;;16.55;;
28934;SDS011;16044;52.726;-2.108;2022-09-09T11:40:19;22.88;;;14.95;;
28934;SDS011;16044;52.726;-2.108;2022-09-09T11:42:50;23.23;;;15.27;;
28934;SDS011;16044;52.726;-2.108;2022-09-09T11:45:31;18.60;;;13.57;;
28934;SDS011;16044;52.726;-2.108;2022-09-09T11:48:02;17.77;;;13.10;;
28934;SDS011;16044;52.726;-2.108;2022-09-09T11:50:33;22.08;;;13.70;;
28934;SDS011;16044;52.726;-2.108;2022-09-09T11:53:21;18.83;;;13.07;;
28934;SDS011;16044;52.726;-2.108;2022-09-09T11:56:11;16.70;;;11.98;;
28934;SDS011;16044;52.726;-2.108;2022-09-09T11:58:44;19.60;;;12.43;;
28934;SDS011;16044;52.726;-2.108;2022-09-09T12:06:51;14.55;;;11.15;;
28934;SDS011;16044;52.726;-2.108;2022-09-09T12:09:25;18.10;;;11.70;;
28934;SDS011;16044;52.726;-2.108;2022-09-09T12:19:41;16.38;;;10.63;;
28934;SDS011;16044;52.726;-2.108;2022-09-09T12:22:16;12.45;;;9.63;;
28934;SDS011;16044;52.726;-2.108;2022-09-09T12:28:41;13.13;;;8.80;;
28934;SDS011;16044;52.726;-2.108;2022-09-09T12:37:13;14.88;;;9.18;;
28934;SDS011;16044;52.726;-2.108;2022-09-09T12:39:47;13.30;;;9.27;;
28934;SDS011;16044;52.726;-2.108;2022-09-09T12:42:22;15.57;;;8.32;;
28934;SDS011;16044;52.726;-2.108;2022-09-09T12:50:21;14.38;;;9.18;;
28934;SDS011;16044;52.726;-2.108;2022-09-09T12:52:55;15.02;;;9.32;;
28934;SDS011;16044;52.726;-2.108;2022-09-09T12:55:27;13.32;;;8.95;;
28934;SDS011;16044;52.726;-2.108;2022-09-09T12:58:00;13.70;;;8.35;;
28934;SDS011;16044;52.726;-2.108;2022-09-09T13:00:31;12.55;;;8.18;;
28934;SDS011;16044;52.726;-2.108;2022-09-09T13:03:00;12.95;;;8.27;;
28934;SDS011;16044;52.726;-2.108;2022-09-09T13:05:43;11.30;;;8.02;;
28934;SDS011;16044;52.726;-2.108;2022-09-09T13:08:10;10.35;;;7.50;;
28934;SDS011;16044;52.726;-2.108;2022-09-09T13:10:47;12.35;;;8.80;;
28934;SDS011;16044;52.726;-2.108;2022-09-09T13:13:24;13.82;;;8.75;;
28934;SDS011;16044;52.726;-2.108;2022-09-09T13:15:56;11.02;;;7.60;;
28934;SDS011;16044;52.726;-2.108;2022-09-09T13:18:27;12.00;;;8.02;;
28934;SDS011;16044;52.726;-2.108;2022-09-09T13:20:57;12.13;;;7.57;;
28934;SDS011;16044;52.726;-2.108;2022-09-09T13:23:31;14.10;;;7.88;;
28934;SDS011;16044;52.726;-2.108;2022-09-09T13:26:03;10.73;;;7.13;;
28934;SDS011;16044;52.726;-2.108;2022-09-09T13:28:34;10.35;;;6.38;;
28934;SDS011;16044;52.726;-2.108;2022-09-09T13:31:05;12.55;;;7.07;;
28934;SDS011;16044;52.726;-2.108;2022-09-09T13:33:50;13.93;;;6.82;;
28934;SDS011;16044;52.726;-2.108;2022-09-09T13:36:27;12.38;;;6.40;;
28934;SDS011;16044;52.726;-2.108;2022-09-09T13:38:58;10.35;;;7.57;;
28934;SDS011;16044;52.726;-2.108;2022-09-09T13:41:31;12.98;;;8.73;;
28934;SDS011;16044;52.726;-2.108;2022-09-09T13:44:01;13.40;;;9.25;;
28934;SDS011;16044;52.726;-2.108;2022-09-09T13:51:37;13.18;;;10.13;;
28934;SDS011;16044;52.726;-2.108;2022-09-09T13:54:06;13.55;;;10.80;;
28934;SDS011;16044;52.726;-2.108;2022-09-09T13:56:37;15.00;;;9.15;;
28934;SDS011;16044;52.726;-2.108;2022-09-09T13:59:09;14.30;;;8.77;;
28934;SDS011;16044;52.726;-2.108;2022-09-09T14:01:39;12.20;;;9.48;;
28934;SDS011;16044;52.726;-2.108;2022-09-09T14:04:06;11.45;;;7.80;;
28934;SDS011;16044;52.726;-2.108;2022-09-09T14:06:34;13.45;;;10.13;;
28934;SDS011;16044;52.726;-2.108;2022-09-09T14:09:06;15.27;;;9.63;;
28934;SDS011;16044;52.726;-2.108;2022-09-09T14:11:42;24.33;;;9.27;;
28934;SDS011;16044;52.726;-2.108;2022-09-09T14:14:10;14.35;;;9.13;;
28934;SDS011;16044;52.726;-2.108;2022-09-09T14:16:37;12.82;;;7.75;;
28934;SDS011;16044;52.726;-2.108;2022-09-09T14:19:04;6.07;;;2.40;;
28934;SDS011;16044;52.726;-2.108;2022-09-09T14:21:31;8.40;;;2.42;;
28934;SDS011;16044;52.726;-2.108;2022-09-09T14:23:58;7.05;;;2.05;;
28934;SDS011;16044;52.726;-2.108;2022-09-09T14:26:25;8.15;;;2.20;;
28934;SDS011;16044;52.726;-2.108;2022-09-09T14:28:52;7.90;;;2.63;;
28934;SDS011;16044;52.726;-2.108;2022-09-09T14:31:22;5.85;;;2.30;;
28934;SDS011;16044;52.726;-2.108;2022-09-09T14:33:50;7.88;;;2.70;;
28934;SDS011;16044;52.726;-2.108;2022-09-09T14:36:18;8.63;;;2.78;;
28934;SDS011;16044;52.726;-2.108;2022-09-09T14:38:46;5.63;;;2.10;;
28934;SDS011;16044;52.726;-2.108;2022-09-09T14:41:14;11.88;;;2.20;;
28934;SDS011;16044;52.726;-2.108;2022-09-09T14:43:43;7.28;;;2.08;;
28934;SDS011;16044;52.726;-2.108;2022-09-09T14:46:12;7.20;;;2.00;;
28934;SDS011;16044;52.726;-2.108;2022-09-09T14:48:43;7.80;;;2.50;;
28934;SDS011;16044;52.726;-2.108;2022-09-09T14:51:12;7.38;;;2.63;;
28934;SDS011;16044;52.726;-2.108;2022-09-09T14:53:46;8.43;;;2.80;;
28934;SDS011;16044;52.726;-2.108;2022-09-09T14:56:17;11.32;;;3.15;;
28934;SDS011;16044;52.726;-2.108;2022-09-09T14:58:47;8.32;;;3.08;;
28934;SDS011;16044;52.726;-2.108;2022-09-09T15:01:17;7.65;;;2.95;;
28934;SDS011;16044;52.726;-2.108;2022-09-09T15:03:50;11.27;;;3.50;;
28934;SDS011;16044;52.726;-2.108;2022-09-09T15:06:21;10.55;;;3.10;;
28934;SDS011;16044;52.726;-2.108;2022-09-09T15:08:50;9.73;;;3.10;;
28934;SDS011;16044;52.726;-2.108;2022-09-09T15:11:19;9.80;;;3.40;;
28934;SDS011;16044;52.726;-2.108;2022-09-09T15:13:47;11.98;;;3.22;;
28934;SDS011;16044;52.726;-2.108;2022-09-09T15:16:19;8.77;;;3.00;;
28934;SDS011;16044;52.726;-2.108;2022-09-09T15:18:49;9.90;;;3.05;;
28934;SDS011;16044;52.726;-2.108;2022-09-09T15:21:19;10.77;;;3.00;;
28934;SDS011;16044;52.726;-2.108;2022-09-09T15:23:49;4.78;;;2.00;;
28934;SDS011;16044;52.726;-2.108;2022-09-09T15:26:16;7.43;;;2.03;;
28934;SDS011;16044;52.726;-2.108;2022-09-09T15:28:44;7.25;;;2.13;;
28934;SDS011;16044;52.726;-2.108;2022-09-09T15:31:14;7.20;;;2.08;;
28934;SDS011;16044;52.726;-2.108;2022-09-09T15:33:54;5.63;;;2.10;;
28934;SDS011;16044;52.726;-2.108;2022-09-09T15:36:32;8.20;;;2.15;;
28934;SDS011;16044;52.726;-2.108;2022-09-09T15:39:08;4.60;;;1.70;;
28934;SDS011;16044;52.726;-2.108;2022-09-09T15:41:39;5.13;;;2.10;;
28934;SDS011;16044;52.726;-2.108;2022-09-09T15:44:06;9.07;;;2.47;;
28934;SDS011;16044;52.726;-2.108;2022-09-09T15:46:34;7.97;;;2.45;;
28934;SDS011;16044;52.726;-2.108;2022-09-09T15:49:14;8.00;;;2.80;;
28934;SDS011;16044;52.726;-2.108;2022-09-09T15:51:45;7.35;;;2.97;;
28934;SDS011;16044;52.726;-2.108;2022-09-09T15:54:15;7.88;;;2.55;;
28934;SDS011;16044;52.726;-2.108;2022-09-09T15:56:45;7.25;;;2.55;;
28934;SDS011;16044;52.726;-2.108;2022-09-09T15:59:15;7.40;;;2.22;;
28934;SDS011;16044;52.726;-2.108;2022-09-09T16:01:42;7.82;;;2.67;;
28934;SDS011;16044;52.726;-2.108;2022-09-09T16:04:10;11.05;;;2.97;;
28934;SDS011;16044;52.726;-2.108;2022-09-09T16:06:37;9.25;;;2.72;;
28934;SDS011;16044;52.726;-2.108;2022-09-09T16:09:06;6.93;;;2.45;;
28934;SDS011;16044;52.726;-2.108;2022-09-09T16:11:35;8.48;;;3.50;;
28934;SDS011;16044;52.726;-2.108;2022-09-09T16:14:04;7.32;;;3.28;;
28934;SDS011;16044;52.726;-2.108;2022-09-09T16:16:33;8.15;;;3.22;;
28934;SDS011;16044;52.726;-2.108;2022-09-09T16:19:08;7.47;;;3.00;;
28934;SDS011;16044;52.726;-2.108;2022-09-09T16:21:43;6.55;;;3.13;;
28934;SDS011;16044;52.726;-2.108;2022-09-09T16:24:16;10.95;;;3.03;;
28934;SDS011;16044;52.726;-2.108;2022-09-09T16:26:49;7.90;;;2.90;;
28934;SDS011;16044;52.726;-2.108;2022-09-09T16:29:19;6.47;;;2.85;;
28934;SDS011;16044;52.726;-2.108;2022-09-09T16:31:48;6.05;;;2.83;;
28934;SDS011;16044;52.726;-2.108;2022-09-09T16:34:17;7.60;;;3.05;;
28934;SDS011;16044;52.726;-2.108;2022-09-09T16:36:45;7.05;;;3.00;;
28934;SDS011;16044;52.726;-2.108;2022-09-09T16:39:22;5.50;;;3.20;;
28934;SDS011;16044;52.726;-2.108;2022-09-09T16:41:49;10.85;;;3.72;;
28934;SDS011;16044;52.726;-2.108;2022-09-09T16:44:16;13.50;;;4.35;;
28934;SDS011;16044;52.726;-2.108;2022-09-09T16:46:45;8.32;;;3.80;;
28934;SDS011;16044;52.726;-2.108;2022-09-09T16:49:15;7.55;;;3.40;;
28934;SDS011;16044;52.726;-2.108;2022-09-09T16:54:13;10.13;;;3.63;;
28934;SDS011;16044;52.726;-2.108;2022-09-09T16:56:44;10.98;;;3.80;;
28934;SDS011;16044;52.726;-2.108;2022-09-09T16:59:13;7.38;;;3.80;;
28934;SDS011;16044;52.726;-2.108;2022-09-09T17:01:46;6.38;;;3.20;;
28934;SDS011;16044;52.726;-2.108;2022-09-09T17:04:19;6.32;;;2.63;;
28934;SDS011;16044;52.726;-2.108;2022-09-09T17:06:51;8.48;;;1.20;;
28934;SDS011;16044;52.726;-2.108;2022-09-09T17:09:20;1.85;;;0.90;;
28934;SDS011;16044;52.726;-2.108;2022-09-09T17:11:49;3.30;;;1.10;;
28934;SDS011;16044;52.726;-2.108;2022-09-09T17:14:19;2.78;;;0.90;;
28934;SDS011;16044;52.726;-2.108;2022-09-09T17:16:47;1.88;;;1.15;;
28934;SDS011;16044;52.726;-2.108;2022-09-09T17:19:15;6.22;;;1.60;;
28934;SDS011;16044;52.726;-2.108;2022-09-09T17:21:42;5.03;;;1.30;;
28934;SDS011;16044;52.726;-2.108;2022-09-09T17:24:30;4.57;;;0.98;;
28934;SDS011;16044;52.726;-2.108;2022-09-09T17:26:57;5.05;;;0.90;;
28934;SDS011;16044;52.726;-2.108;2022-09-09T17:29:24;2.08;;;0.77;;